createdAt,value
2018-02-14T00:01:48.416Z,74.00
2018-02-14T00:04:15.482Z,73.82
2018-02-14T00:06:42.522Z,73.70
2018-02-14T00:09:09.544Z,73.41
2018-02-14T00:11:36.562Z,73.34
2018-02-14T00:14:03.628Z,73.41
2018-02-14T00:16:30.646Z,73.55
2018-02-14T00:18:57.706Z,73.66
2018-02-14T00:21:24.768Z,74.35
2018-02-14T00:23:51.823Z,74.02
2018-02-14T00:26:19.290Z,73.72
2018-02-14T00:28:46.312Z,73.52
2018-02-14T00:31:13.387Z,73.75
2018-02-14T00:33:40.455Z,73.96
2018-02-14T00:36:07.497Z,74.40
2018-02-14T00:38:34.566Z,74.56
2018-02-14T00:41:01.606Z,74.49
2018-02-14T00:43:28.664Z,74.59
2018-02-14T00:45:55.724Z,74.43
2018-02-14T00:48:22.898Z,74.44
2018-02-14T00:50:49.968Z,74.38
2018-02-14T00:53:17.005Z,74.57
2018-02-14T00:55:44.163Z,74.74
2018-02-14T00:58:11.200Z,74.78
2018-02-14T01:00:38.224Z,74.81
2018-02-14T01:03:05.236Z,74.79
2018-02-14T01:05:32.265Z,74.79
2018-02-14T01:07:59.332Z,74.69
2018-02-14T01:10:26.360Z,74.62
2018-02-14T01:12:53.447Z,74.45
2018-02-14T01:15:20.466Z,74.51
2018-02-14T01:17:47.514Z,74.60
2018-02-14T01:20:14.535Z,74.59
2018-02-14T01:22:41.621Z,74.97
2018-02-14T01:25:08.704Z,75.40
2018-02-14T01:27:35.665Z,75.69
2018-02-14T01:30:02.820Z,75.95
2018-02-14T01:32:29.916Z,76.17
2018-02-14T01:34:57.002Z,76.31
2018-02-14T01:37:24.122Z,76.29
2018-02-14T01:39:51.210Z,76.46
2018-02-14T01:42:18.257Z,76.56
2018-02-14T01:44:45.283Z,76.88
2018-02-14T01:47:12.317Z,76.89
2018-02-14T01:49:39.372Z,76.65
2018-02-14T01:52:06.376Z,76.22
2018-02-14T01:54:33.412Z,76.00
2018-02-14T01:57:00.463Z,75.79
2018-02-14T01:59:27.482Z,75.77
2018-02-14T02:01:54.513Z,75.56
2018-02-14T02:04:21.612Z,75.37
2018-02-14T02:06:48.671Z,75.30
2018-02-14T02:09:15.686Z,75.34
2018-02-14T02:11:42.747Z,74.85
2018-02-14T02:14:09.789Z,74.62
2018-02-14T02:16:36.851Z,74.39
2018-02-14T02:19:03.868Z,74.21
2018-02-14T02:21:30.950Z,74.16
2018-02-14T02:23:58.037Z,73.75
2018-02-14T02:26:25.102Z,73.45
2018-02-14T02:28:52.128Z,73.30
2018-02-14T02:31:19.159Z,73.02
2018-02-14T02:33:46.255Z,72.81
2018-02-14T02:36:13.272Z,73.12
2018-02-14T02:38:40.319Z,72.96
2018-02-14T02:41:07.420Z,72.87
2018-02-14T02:43:34.474Z,72.95
2018-02-14T02:46:01.489Z,73.28
2018-02-14T02:48:28.437Z,73.55
2018-02-14T02:50:55.448Z,73.72
2018-02-14T02:53:22.450Z,73.36
2018-02-14T02:55:49.510Z,73.30
2018-02-14T02:58:16.641Z,73.53
2018-02-14T03:03:16.963Z,73.42
2018-02-14T03:05:44.006Z,73.24
2018-02-14T03:08:11.092Z,73.46
2018-02-14T03:10:38.137Z,73.45
2018-02-14T03:13:05.193Z,72.99
2018-02-14T03:15:32.204Z,72.80
2018-02-14T03:17:59.267Z,72.82
2018-02-14T03:20:26.511Z,72.72
2018-02-14T03:22:53.500Z,72.48
2018-02-14T03:25:20.749Z,72.36
2018-02-14T03:27:47.768Z,72.26
2018-02-14T03:30:14.803Z,72.13
2018-02-14T03:32:41.864Z,72.02
2018-02-14T03:35:08.926Z,71.89
2018-02-14T03:37:35.998Z,72.08
2018-02-14T03:40:03.012Z,72.54
2018-02-14T03:42:29.994Z,72.41
2018-02-14T03:44:56.989Z,72.41
2018-02-14T03:47:24.023Z,72.17
2018-02-14T03:49:51.085Z,71.64
2018-02-14T03:52:18.241Z,71.88
2018-02-14T03:54:45.238Z,72.11
2018-02-14T03:57:12.310Z,71.86
2018-02-14T03:59:39.388Z,71.89
2018-02-14T04:02:06.411Z,71.92
2018-02-14T04:06:59.745Z,71.87
2018-02-14T04:09:26.756Z,71.84
2018-02-14T04:11:53.755Z,72.07
2018-02-14T04:14:20.766Z,72.39
2018-02-14T04:16:47.784Z,72.49
2018-02-14T04:19:14.831Z,72.51
2018-02-14T04:21:41.891Z,72.21
2018-02-14T04:24:08.961Z,72.16
2018-02-14T04:26:36.025Z,72.02
2018-02-14T04:29:03.083Z,71.95
2018-02-14T04:31:30.090Z,71.73
2018-02-14T04:33:57.150Z,72.38
2018-02-14T04:36:24.299Z,72.51
2018-02-14T04:38:51.473Z,72.63
2018-02-14T04:41:18.505Z,72.10
2018-02-14T04:46:11.885Z,72.10
2018-02-14T04:48:38.928Z,71.74
2018-02-14T04:51:06.042Z,71.51
2018-02-14T04:53:33.135Z,71.77
2018-02-14T04:56:00.174Z,72.56
2018-02-14T04:58:27.267Z,72.89
2018-02-14T05:00:54.296Z,73.19
2018-02-14T05:03:21.303Z,73.46
2018-02-14T05:05:48.339Z,73.54
2018-02-14T05:08:15.363Z,73.65
2018-02-14T05:10:42.382Z,73.83
2018-02-14T05:13:09.451Z,73.95
2018-02-14T05:15:36.480Z,73.92
2018-02-14T05:18:03.523Z,73.60
2018-02-14T05:20:30.577Z,73.72
2018-02-14T05:22:57.583Z,73.93
2018-02-14T05:25:24.628Z,74.04
2018-02-14T05:27:51.646Z,74.48
2018-02-14T05:30:18.685Z,74.42
2018-02-14T05:32:45.695Z,74.47
2018-02-14T05:35:12.725Z,74.56
2018-02-14T05:37:39.838Z,74.80
2018-02-14T05:40:06.914Z,74.71
2018-02-14T05:42:33.918Z,74.72
2018-02-14T05:45:00.967Z,74.69
2018-02-14T05:47:27.990Z,74.50
2018-02-14T05:49:55.047Z,74.65
2018-02-14T05:52:22.116Z,74.78
2018-02-14T05:54:49.164Z,74.51
2018-02-14T05:57:16.224Z,74.13
2018-02-14T05:59:43.231Z,73.80
2018-02-14T06:02:10.185Z,73.83
2018-02-14T06:04:37.280Z,73.80
2018-02-14T06:07:04.692Z,73.73
2018-02-14T06:09:31.747Z,73.70
2018-02-14T06:11:58.775Z,73.85
2018-02-14T06:14:25.822Z,73.97
2018-02-14T06:16:52.846Z,74.20
2018-02-14T06:19:19.947Z,74.57
2018-02-14T06:21:46.967Z,74.55
2018-02-14T06:24:14.105Z,74.25
2018-02-14T06:26:41.166Z,74.05
2018-02-14T06:29:09.160Z,74.21
2018-02-14T06:31:36.174Z,74.19
2018-02-14T06:34:03.129Z,74.22
2018-02-14T06:36:30.134Z,74.14
2018-02-14T06:38:57.145Z,74.29
2018-02-14T06:41:24.252Z,74.53
2018-02-14T06:43:51.320Z,74.36
2018-02-14T06:46:18.405Z,74.30
2018-02-14T06:48:45.449Z,74.19
2018-02-14T06:51:12.472Z,73.69
2018-02-14T06:53:39.544Z,73.51
2018-02-14T06:56:06.649Z,73.39
2018-02-14T06:58:33.734Z,73.30
2018-02-14T07:01:00.765Z,73.45
2018-02-14T07:03:27.815Z,73.23
2018-02-14T07:05:54.821Z,73.42
2018-02-14T07:08:21.795Z,73.75
2018-02-14T07:10:48.864Z,73.64
2018-02-14T07:13:15.984Z,73.69
2018-02-14T07:15:43.036Z,73.91
2018-02-14T07:18:10.079Z,74.24
2018-02-14T07:20:37.115Z,74.00
2018-02-14T07:23:04.341Z,73.64
2018-02-14T07:25:31.349Z,73.54
2018-02-14T07:27:58.353Z,73.71
2018-02-14T07:30:25.365Z,74.02
2018-02-14T07:32:52.394Z,73.66
2018-02-14T07:35:19.447Z,73.28
2018-02-14T07:37:46.466Z,73.00
2018-02-14T07:40:13.502Z,72.89
2018-02-14T07:42:40.545Z,72.81
2018-02-14T07:45:07.607Z,72.67
2018-02-14T07:47:34.669Z,72.71
2018-02-14T07:50:01.774Z,73.04
2018-02-14T07:52:28.720Z,72.94
2018-02-14T07:54:55.786Z,73.00
2018-02-14T07:57:22.835Z,72.95
2018-02-14T07:59:49.911Z,72.82
2018-02-14T08:02:16.927Z,73.22
2018-02-14T08:04:43.963Z,73.51
2018-02-14T08:07:10.968Z,73.86
2018-02-14T08:09:37.996Z,73.90
2018-02-14T08:12:05.050Z,74.06
2018-02-14T08:14:32.108Z,73.94
2018-02-14T08:16:59.143Z,73.66
2018-02-14T08:19:26.471Z,73.52
2018-02-14T08:21:53.460Z,73.51
2018-02-14T08:24:20.529Z,73.32
2018-02-14T08:26:47.573Z,73.12
2018-02-14T08:29:14.668Z,72.97
2018-02-14T08:31:41.602Z,72.96
2018-02-14T08:34:08.664Z,72.92
2018-02-14T08:36:35.680Z,72.92
2018-02-14T08:39:02.753Z,72.41
2018-02-14T08:41:29.773Z,71.98
2018-02-14T08:43:56.843Z,72.00
2018-02-14T08:46:23.850Z,72.28
2018-02-14T08:48:50.904Z,72.49
2018-02-14T08:51:17.940Z,72.18
2018-02-14T08:53:44.922Z,71.78
2018-02-14T08:56:12.036Z,72.14
2018-02-14T08:58:39.139Z,72.12
2018-02-14T09:01:06.255Z,71.63
2018-02-14T09:03:33.331Z,71.06
2018-02-14T09:06:00.354Z,70.87
2018-02-14T09:08:27.426Z,71.26
2018-02-14T09:10:54.503Z,71.40
2018-02-14T09:13:21.563Z,71.80
2018-02-14T09:15:48.495Z,72.09
2018-02-14T09:18:15.525Z,71.85
2018-02-14T09:20:42.697Z,71.85
2018-02-14T09:23:09.700Z,72.23
2018-02-14T09:25:36.705Z,72.30
2018-02-14T09:28:03.730Z,72.07
2018-02-14T09:30:30.739Z,72.35
2018-02-14T09:32:57.766Z,72.82
2018-02-14T09:35:24.802Z,72.35
2018-02-14T09:37:52.038Z,71.82
2018-02-14T09:40:19.036Z,71.57
2018-02-14T09:42:46.009Z,70.92
2018-02-14T09:45:13.059Z,70.51
2018-02-14T09:47:40.076Z,70.58
2018-02-14T09:50:07.140Z,70.83
2018-02-14T09:52:34.229Z,70.34
2018-02-14T09:55:01.331Z,69.67
2018-02-14T09:57:28.402Z,68.85
2018-02-14T09:59:55.455Z,68.46
2018-02-14T10:02:22.461Z,68.56
2018-02-14T10:04:49.506Z,68.06
2018-02-14T10:07:16.562Z,67.41
2018-02-14T10:09:43.658Z,67.50
2018-02-14T10:12:10.670Z,67.65
2018-02-14T10:14:37.719Z,67.60
2018-02-14T10:17:04.767Z,67.93
2018-02-14T10:19:31.766Z,67.48
2018-02-14T10:21:58.808Z,67.56
2018-02-14T10:24:25.905Z,67.64
2018-02-14T10:26:52.941Z,67.70
2018-02-14T10:29:19.994Z,67.87
2018-02-14T10:31:47.150Z,67.64
2018-02-14T10:34:14.210Z,67.28
2018-02-14T10:36:41.215Z,67.29
2018-02-14T10:39:08.200Z,66.98
2018-02-14T10:41:35.201Z,67.14
2018-02-14T10:44:02.254Z,67.61
2018-02-14T10:46:29.248Z,68.01
2018-02-14T10:48:56.273Z,67.82
2018-02-14T10:51:23.224Z,67.23
2018-02-14T10:53:50.262Z,66.64
2018-02-14T10:56:17.579Z,67.32
2018-02-14T10:58:44.531Z,67.35
2018-02-14T11:01:17.278Z,67.29
2018-02-14T11:03:44.241Z,67.08
2018-02-14T11:06:13.034Z,67.03
2018-02-14T11:08:40.003Z,66.65
2018-02-14T11:11:07.074Z,65.84
2018-02-14T11:13:34.100Z,65.25
2018-02-14T11:16:01.086Z,64.73
2018-02-14T11:18:28.084Z,64.36
2018-02-14T11:20:55.128Z,62.72
2018-02-14T11:23:22.138Z,61.23
2018-02-14T11:25:49.231Z,60.02
2018-02-14T11:28:16.362Z,58.96
2018-02-14T11:30:43.381Z,58.67
2018-02-14T11:33:10.403Z,58.42
2018-02-14T11:35:37.435Z,59.42
2018-02-14T11:38:04.478Z,59.01
2018-02-14T11:40:31.545Z,56.53
2018-02-14T11:42:58.546Z,56.74
2018-02-14T11:45:25.614Z,57.03
2018-02-14T11:47:52.678Z,57.63
2018-02-14T11:50:19.628Z,57.17
2018-02-14T11:52:46.991Z,56.17
2018-02-14T11:55:14.038Z,55.56
2018-02-14T11:57:41.110Z,54.44
2018-02-14T12:00:09.458Z,50.42
2018-02-14T12:02:36.567Z,49.23
2018-02-14T12:05:03.571Z,49.16
2018-02-14T12:07:30.570Z,51.57
2018-02-14T12:09:57.601Z,54.02
2018-02-14T12:12:24.635Z,55.54
2018-02-14T12:14:51.661Z,55.71
2018-02-14T12:19:51.995Z,56.18
2018-02-14T12:22:19.074Z,55.66
2018-02-14T12:24:46.132Z,56.33
2018-02-14T12:27:13.342Z,56.07
2018-02-14T12:29:40.354Z,55.99
2018-02-14T12:32:07.407Z,55.42
2018-02-14T12:34:34.482Z,54.22
2018-02-14T12:37:01.565Z,45.16
2018-02-14T12:39:28.629Z,42.72
2018-02-14T12:41:55.642Z,41.23
2018-02-14T12:44:22.679Z,34.08
2018-02-14T12:46:49.759Z,32.41
2018-02-14T12:49:16.778Z,31.62
2018-02-14T12:51:43.891Z,29.61
2018-02-14T12:54:10.958Z,28.37
2018-02-14T12:56:38.012Z,31.81
2018-02-14T12:59:05.066Z,32.21
2018-02-14T13:01:32.116Z,30.42
2018-02-14T13:03:59.168Z,31.23
2018-02-14T13:06:26.234Z,29.92
2018-02-14T13:08:53.245Z,29.69
2018-02-14T13:11:20.253Z,29.21
2018-02-14T13:13:47.258Z,31.55
2018-02-14T13:16:14.277Z,32.69
2018-02-14T13:18:41.344Z,31.04
2018-02-14T13:21:08.361Z,30.09
2018-02-14T13:23:35.378Z,28.44
2018-02-14T13:26:02.667Z,26.82
2018-02-14T13:28:29.710Z,26.92
2018-02-14T13:30:56.790Z,26.71
2018-02-14T13:33:23.939Z,30.77
2018-02-14T13:35:51.017Z,31.31
2018-02-14T13:38:17.997Z,31.38
2018-02-14T13:40:45.023Z,28.86
2018-02-14T13:43:12.064Z,29.53
2018-02-14T13:45:39.120Z,30.03
2018-02-14T13:48:06.179Z,31.86
2018-02-14T13:50:33.242Z,33.07
2018-02-14T13:53:00.733Z,32.99
2018-02-14T13:55:27.765Z,31.53
2018-02-14T13:57:54.785Z,29.41
2018-02-14T14:00:21.784Z,30.69
2018-02-14T14:02:48.747Z,31.83
2018-02-14T14:05:15.758Z,33.24
2018-02-14T14:07:42.811Z,33.41
2018-02-14T14:10:09.867Z,34.25
2018-02-14T14:12:36.892Z,34.85
2018-02-14T14:15:03.940Z,33.78
2018-02-14T14:17:30.986Z,32.98
2018-02-14T14:19:58.160Z,33.94
2018-02-14T14:22:25.131Z,31.14
2018-02-14T14:24:52.181Z,29.35
2018-02-14T14:27:19.209Z,28.59
2018-02-14T14:29:46.261Z,29.67
2018-02-14T14:32:13.322Z,30.17
2018-02-14T14:34:40.359Z,29.04
2018-02-14T14:37:07.450Z,28.92
2018-02-14T14:39:34.531Z,28.67
2018-02-14T14:42:01.679Z,27.71
2018-02-14T14:44:28.694Z,28.53
2018-02-14T14:46:55.702Z,32.16
2018-02-14T14:49:22.782Z,35.12
2018-02-14T14:51:49.809Z,33.03
2018-02-14T14:54:16.867Z,30.64
2018-02-14T14:56:44.069Z,28.81
2018-02-14T14:59:11.079Z,29.15
2018-02-14T15:01:38.086Z,29.77
2018-02-14T15:04:05.084Z,30.07
2018-02-14T15:06:32.103Z,30.06
2018-02-14T15:08:59.124Z,28.12
2018-02-14T15:11:26.188Z,28.91
2018-02-14T15:13:53.243Z,28.20
2018-02-14T15:16:20.301Z,28.39
2018-02-14T15:18:47.352Z,29.04
2018-02-14T15:21:14.427Z,28.54
2018-02-14T15:23:41.573Z,27.84
2018-02-14T15:26:08.660Z,25.48
2018-02-14T15:28:35.695Z,23.84
2018-02-14T15:31:02.712Z,23.14
2018-02-14T15:33:29.738Z,22.93
2018-02-14T15:35:56.805Z,24.53
2018-02-14T15:38:23.817Z,25.91
2018-02-14T15:40:50.806Z,26.87
2018-02-14T15:43:17.834Z,28.99
2018-02-14T15:45:44.840Z,30.98
2018-02-14T15:48:11.848Z,31.60
2018-02-14T15:50:38.792Z,33.56
2018-02-14T15:53:05.859Z,34.76
2018-02-14T15:55:32.920Z,35.59
2018-02-14T15:57:59.919Z,37.23
2018-02-14T16:00:26.945Z,38.02
2018-02-14T16:02:53.984Z,39.28
2018-02-14T16:05:20.948Z,40.17
2018-02-14T16:07:47.961Z,39.57
2018-02-14T16:10:14.995Z,37.57
2018-02-14T16:12:42.275Z,35.27
2018-02-14T16:15:09.276Z,35.33
2018-02-14T16:17:36.294Z,35.74
2018-02-14T16:20:03.338Z,37.83
2018-02-14T16:22:30.316Z,40.33
2018-02-14T16:24:57.314Z,42.58
2018-02-14T16:27:24.406Z,44.32
2018-02-14T16:29:51.347Z,44.99
2018-02-14T16:32:18.366Z,46.07
2018-02-14T16:34:45.427Z,47.45
2018-02-14T16:37:12.421Z,48.33
2018-02-14T16:39:39.483Z,48.99
2018-02-14T16:42:06.412Z,49.80
2018-02-14T16:44:33.466Z,51.21
2018-02-14T16:47:00.473Z,52.08
2018-02-14T16:49:27.502Z,52.83
2018-02-14T16:51:54.658Z,53.64
2018-02-14T16:54:21.851Z,54.49
2018-02-14T16:56:48.906Z,55.20
2018-02-14T16:59:15.958Z,55.73
2018-02-14T17:01:42.973Z,56.21
2018-02-14T17:04:10.056Z,56.63
2018-02-14T17:06:37.131Z,56.38
2018-02-14T17:09:04.147Z,56.73
2018-02-14T17:11:31.174Z,56.49
2018-02-14T17:13:58.193Z,56.45
2018-02-14T17:16:25.211Z,56.65
2018-02-14T17:18:52.370Z,56.67
2018-02-14T17:21:19.787Z,56.74
2018-02-14T17:23:46.885Z,57.02
2018-02-14T17:26:13.994Z,57.07
2018-02-14T17:28:40.992Z,57.36
2018-02-14T17:31:08.038Z,57.30
2018-02-14T17:33:35.071Z,57.32
2018-02-14T17:36:02.179Z,57.33
2018-02-14T17:38:29.237Z,57.55
2018-02-14T17:40:57.155Z,57.51
2018-02-14T17:43:24.177Z,57.52
2018-02-14T17:45:51.173Z,57.61
2018-02-14T17:48:18.170Z,57.93
2018-02-14T17:50:45.219Z,57.98
2018-02-14T17:53:12.530Z,58.18
2018-02-14T17:55:39.577Z,58.20
2018-02-14T17:58:06.590Z,58.40
2018-02-14T18:00:33.544Z,58.66
2018-02-14T18:03:00.867Z,58.95
2018-02-14T18:05:27.987Z,60.03
2018-02-14T18:07:55.064Z,60.17
2018-02-14T18:10:22.143Z,60.40
2018-02-14T18:12:49.234Z,60.67
2018-02-14T18:15:16.282Z,60.69
2018-02-14T18:17:43.329Z,60.78
2018-02-14T18:20:10.413Z,60.91
2018-02-14T18:22:37.494Z,61.07
2018-02-14T18:25:04.892Z,61.45
2018-02-14T18:30:05.399Z,61.61
2018-02-14T18:32:32.509Z,61.67
2018-02-14T18:34:59.537Z,61.94
2018-02-14T18:37:26.519Z,62.10
2018-02-14T18:39:53.501Z,62.21
2018-02-14T18:42:20.513Z,62.42
2018-02-14T18:44:47.577Z,62.53
2018-02-14T18:47:14.584Z,62.53
2018-02-14T18:49:41.595Z,62.71
2018-02-14T18:52:08.684Z,62.98
2018-02-14T18:54:35.881Z,63.47
2018-02-14T18:57:02.954Z,63.84
2018-02-14T18:59:30.783Z,63.99
2018-02-14T19:01:57.820Z,63.93
2018-02-14T19:04:24.858Z,64.14
2018-02-14T19:06:51.888Z,64.06
2018-02-14T19:09:18.974Z,64.02
2018-02-14T19:11:45.981Z,64.08
2018-02-14T19:14:13.016Z,64.04
2018-02-14T19:16:40.110Z,64.03
2018-02-14T19:19:07.184Z,64.46
2018-02-14T19:21:34.274Z,64.42
2018-02-14T19:24:01.288Z,64.32
2018-02-14T19:26:28.501Z,64.25
2018-02-14T19:28:55.651Z,64.14
2018-02-14T19:31:22.692Z,64.08
2018-02-14T19:33:49.746Z,63.91
2018-02-14T19:36:16.814Z,63.87
2018-02-14T19:38:43.832Z,63.91
2018-02-14T19:41:10.883Z,64.02
2018-02-14T19:43:37.950Z,64.10
2018-02-14T19:46:04.990Z,64.35
2018-02-14T19:48:31.996Z,64.57
2018-02-14T19:50:59.197Z,64.92
2018-02-14T19:53:26.236Z,65.45
2018-02-14T19:55:53.395Z,65.54
2018-02-14T19:58:20.395Z,65.66
2018-02-14T20:00:47.405Z,65.76
2018-02-14T20:03:14.408Z,65.69
2018-02-14T20:05:41.539Z,65.78
2018-02-14T20:08:09.327Z,65.89
2018-02-14T20:10:36.405Z,65.82
2018-02-14T20:13:03.413Z,66.07
2018-02-14T20:15:30.480Z,66.19
2018-02-14T20:17:57.528Z,66.36
2018-02-14T20:20:24.587Z,66.53
2018-02-14T20:22:51.644Z,66.53
2018-02-14T20:25:18.805Z,66.47
2018-02-14T20:27:45.798Z,66.33
2018-02-14T20:30:13.216Z,66.38
2018-02-14T20:32:40.310Z,66.23
2018-02-14T20:35:07.411Z,66.11
2018-02-14T20:37:34.439Z,66.11
2018-02-14T20:40:01.501Z,65.96
2018-02-14T20:42:28.490Z,65.84
2018-02-14T20:44:55.475Z,65.95
2018-02-14T20:47:22.479Z,66.32
2018-02-14T20:49:49.693Z,66.35
2018-02-14T20:52:16.735Z,66.53
2018-02-14T20:54:43.742Z,66.37
2018-02-14T20:57:10.743Z,66.40
2018-02-14T20:59:37.783Z,66.58
2018-02-14T21:02:04.815Z,66.52
2018-02-14T21:07:05.125Z,66.75
2018-02-14T21:09:32.228Z,66.88
2018-02-14T21:11:59.173Z,66.84
2018-02-14T21:14:26.513Z,66.90
2018-02-14T21:16:53.578Z,66.71
2018-02-14T21:19:20.660Z,66.59
2018-02-14T21:21:47.759Z,66.62
2018-02-14T21:24:14.838Z,66.38
2018-02-14T21:26:41.901Z,66.30
2018-02-14T21:29:08.906Z,66.26
2018-02-14T21:31:35.978Z,66.30
2018-02-14T21:34:03.072Z,66.30
2018-02-14T21:36:30.152Z,66.61
2018-02-14T21:38:57.202Z,66.64
2018-02-14T21:41:24.268Z,66.59
2018-02-14T21:43:51.253Z,66.75
2018-02-14T21:46:18.310Z,66.93
2018-02-14T21:48:45.338Z,67.35
2018-02-14T21:51:12.278Z,67.91
2018-02-14T21:53:39.347Z,68.10
2018-02-14T21:56:06.448Z,67.83
2018-02-14T21:58:33.473Z,67.62
2018-02-14T22:01:00.601Z,67.79
2018-02-14T22:03:27.696Z,67.65
2018-02-14T22:05:54.699Z,67.76
2018-02-14T22:08:21.719Z,67.77
2018-02-14T22:10:48.859Z,67.79
2018-02-14T22:13:16.027Z,67.92
2018-02-14T22:15:43.096Z,67.76
2018-02-14T22:18:10.109Z,67.63
2018-02-14T22:20:37.231Z,67.91
2018-02-14T22:23:04.312Z,68.18
2018-02-14T22:25:31.430Z,68.28
2018-02-14T22:27:58.456Z,68.23
2018-02-14T22:30:25.571Z,68.11
2018-02-14T22:32:52.617Z,68.14
2018-02-14T22:35:19.692Z,68.02
2018-02-14T22:37:46.762Z,67.97
2018-02-14T22:40:13.843Z,67.99
2018-02-14T22:42:40.878Z,68.03
2018-02-14T22:45:07.914Z,67.96
2018-02-14T22:47:34.974Z,67.83
2018-02-14T22:50:01.989Z,67.97
2018-02-14T22:52:29.088Z,68.07
2018-02-14T22:54:56.116Z,67.93
2018-02-14T22:57:23.166Z,67.94
2018-02-14T22:59:50.152Z,68.00
2018-02-14T23:02:17.168Z,67.91
2018-02-14T23:04:44.248Z,67.90
2018-02-14T23:07:11.304Z,67.59
2018-02-14T23:09:38.426Z,67.74
2018-02-14T23:12:05.374Z,67.66
2018-02-14T23:14:32.436Z,67.55
2018-02-14T23:16:59.813Z,67.29
2018-02-14T23:19:26.867Z,67.25
2018-02-14T23:21:53.861Z,67.33
2018-02-14T23:24:20.803Z,67.51
2018-02-14T23:26:47.879Z,67.55
2018-02-14T23:29:14.903Z,67.81
2018-02-14T23:31:41.916Z,68.09
2018-02-14T23:34:08.930Z,68.23
2018-02-14T23:36:35.920Z,68.02
2018-02-14T23:39:02.962Z,67.80
2018-02-14T23:41:30.002Z,67.83
2018-02-14T23:43:57.026Z,67.73
2018-02-14T23:46:24.093Z,67.58
2018-02-14T23:48:51.073Z,67.81
2018-02-14T23:51:18.085Z,68.00
2018-02-14T23:53:45.172Z,67.92
2018-02-14T23:58:45.632Z,67.14
